sensor_id;sensor_type;location;lat;lon;timestamp;temperature;humidity
9448;DHT22;4762;48.128;11.376;2023-09-19T03:33:36;15.90;84.90
9448;DHT22;4762;48.128;11.376;2023-09-19T03:35:41;15.80;85.30
9448;DHT22;4762;48.128;11.376;2023-09-19T03:38:01;15.80;85.70
9448;DHT22;4762;48.128;11.376;2023-09-19T03:40:11;15.80;85.10
9448;DHT22;4762;48.128;11.376;2023-09-19T03:42:31;15.90;85.10
9448;DHT22;4762;48.128;11.376;2023-09-19T03:47:14;15.90;84.90
9448;DHT22;4762;48.128;11.376;2023-09-19T03:49:26;15.90;85.10
9448;DHT22;4762;48.128;11.376;2023-09-19T03:51:51;15.90;84.80
9448;DHT22;4762;48.128;11.376;2023-09-19T03:54:18;15.90;85.40
9448;DHT22;4762;48.128;11.376;2023-09-19T03:56:38;15.90;85.90
9448;DHT22;4762;48.128;11.376;2023-09-19T03:58:55;15.90;84.80
9448;DHT22;4762;48.128;11.376;2023-09-19T04:01:01;15.90;84.90
9448;DHT22;4762;48.128;11.376;2023-09-19T04:03:05;15.90;84.90
9448;DHT22;4762;48.128;11.376;2023-09-19T04:05:32;16.00;84.70
9448;DHT22;4762;48.128;11.376;2023-09-19T04:07:38;15.90;85.20
9448;DHT22;4762;48.128;11.376;2023-09-19T04:09:48;16.00;85.20
9448;DHT22;4762;48.128;11.376;2023-09-19T04:11:53;15.90;85.90
9448;DHT22;4762;48.128;11.376;2023-09-19T04:14:02;15.90;85.20
9448;DHT22;4762;48.128;11.376;2023-09-19T04:16:03;15.90;85.10
9448;DHT22;4762;48.128;11.376;2023-09-19T04:18:07;15.90;84.30
9448;DHT22;4762;48.128;11.376;2023-09-19T04:20:10;15.80;84.60
9448;DHT22;4762;48.128;11.376;2023-09-19T04:22:17;15.90;84.40
9448;DHT22;4762;48.128;11.376;2023-09-19T04:24:44;15.90;84.30
9448;DHT22;4762;48.128;11.376;2023-09-19T04:27:08;15.80;84.50
9448;DHT22;4762;48.128;11.376;2023-09-19T04:29:10;15.80;84.70
9448;DHT22;4762;48.128;11.376;2023-09-19T04:31:14;15.90;84.70
9448;DHT22;4762;48.128;11.376;2023-09-19T04:33:38;15.80;84.10
9448;DHT22;4762;48.128;11.376;2023-09-19T04:35:52;15.90;84.10
9448;DHT22;4762;48.128;11.376;2023-09-19T04:37:55;15.80;84.00
9448;DHT22;4762;48.128;11.376;2023-09-19T04:40:04;15.90;83.80
9448;DHT22;4762;48.128;11.376;2023-09-19T04:42:07;15.80;83.80
9448;DHT22;4762;48.128;11.376;2023-09-19T04:44:17;15.80;84.20
9448;DHT22;4762;48.128;11.376;2023-09-19T04:46:19;15.70;84.30
9448;DHT22;4762;48.128;11.376;2023-09-19T04:48:27;15.70;84.30
9448;DHT22;4762;48.128;11.376;2023-09-19T04:58:50;15.70;84.50
9448;DHT22;4762;48.128;11.376;2023-09-19T05:01:09;15.70;84.30
9448;DHT22;4762;48.128;11.376;2023-09-19T05:03:16;15.70;84.40
9448;DHT22;4762;48.128;11.376;2023-09-19T05:05:31;15.70;84.30
9448;DHT22;4762;48.128;11.376;2023-09-19T05:07:34;15.70;84.60
9448;DHT22;4762;48.128;11.376;2023-09-19T05:09:43;15.70;84.00
9448;DHT22;4762;48.128;11.376;2023-09-19T05:11:49;15.70;84.60
9448;DHT22;4762;48.128;11.376;2023-09-19T05:14:10;15.70;84.80
9448;DHT22;4762;48.128;11.376;2023-09-19T05:16:16;15.70;85.60
9448;DHT22;4762;48.128;11.376;2023-09-19T05:18:19;15.60;84.50
9448;DHT22;4762;48.128;11.376;2023-09-19T05:20:28;15.60;85.30
9448;DHT22;4762;48.128;11.376;2023-09-19T05:22:32;15.60;84.80
9448;DHT22;4762;48.128;11.376;2023-09-19T05:24:35;15.60;84.80
9448;DHT22;4762;48.128;11.376;2023-09-19T05:26:39;15.70;84.70
9448;DHT22;4762;48.128;11.376;2023-09-19T05:28:46;15.60;84.70
9448;DHT22;4762;48.128;11.376;2023-09-19T05:30:56;15.60;84.40
9448;DHT22;4762;48.128;11.376;2023-09-19T05:32:59;15.60;85.00
9448;DHT22;4762;48.128;11.376;2023-09-19T05:35:03;15.60;85.30
9448;DHT22;4762;48.128;11.376;2023-09-19T05:37:07;15.50;84.90
9448;DHT22;4762;48.128;11.376;2023-09-19T05:39:20;15.50;85.10
9448;DHT22;4762;48.128;11.376;2023-09-19T05:41:27;15.50;85.20
9448;DHT22;4762;48.128;11.376;2023-09-19T05:43:33;15.50;85.80
9448;DHT22;4762;48.128;11.376;2023-09-19T05:45:39;15.50;85.10
9448;DHT22;4762;48.128;11.376;2023-09-19T05:47:46;15.60;85.20
9448;DHT22;4762;48.128;11.376;2023-09-19T05:49:48;15.60;85.50
9448;DHT22;4762;48.128;11.376;2023-09-19T05:51:52;15.80;84.70
9448;DHT22;4762;48.128;11.376;2023-09-19T05:54:01;15.90;84.30
9448;DHT22;4762;48.128;11.376;2023-09-19T05:56:10;15.90;84.00
9448;DHT22;4762;48.128;11.376;2023-09-19T05:58:15;15.90;84.40
9448;DHT22;4762;48.128;11.376;2023-09-19T06:00:23;16.00;83.70
9448;DHT22;4762;48.128;11.376;2023-09-19T06:02:34;16.10;83.50
9448;DHT22;4762;48.128;11.376;2023-09-19T06:04:41;16.20;82.70
9448;DHT22;4762;48.128;11.376;2023-09-19T06:06:53;16.20;82.80
9448;DHT22;4762;48.128;11.376;2023-09-19T06:09:08;16.20;82.40
9448;DHT22;4762;48.128;11.376;2023-09-19T06:11:23;16.30;82.00
9448;DHT22;4762;48.128;11.376;2023-09-19T06:13:31;16.30;82.70
9448;DHT22;4762;48.128;11.376;2023-09-19T06:15:36;16.30;82.20
9448;DHT22;4762;48.128;11.376;2023-09-19T06:17:48;16.30;82.20
9448;DHT22;4762;48.128;11.376;2023-09-19T06:19:53;16.30;82.30
9448;DHT22;4762;48.128;11.376;2023-09-19T06:21:55;16.30;82.80
9448;DHT22;4762;48.128;11.376;2023-09-19T06:24:02;16.40;81.90
9448;DHT22;4762;48.128;11.376;2023-09-19T06:26:07;16.40;81.60
9448;DHT22;4762;48.128;11.376;2023-09-19T06:28:12;16.40;82.70
9448;DHT22;4762;48.128;11.376;2023-09-19T06:30:24;16.50;81.80
9448;DHT22;4762;48.128;11.376;2023-09-19T06:32:29;16.60;81.00
9448;DHT22;4762;48.128;11.376;2023-09-19T06:34:40;16.70;81.30
9448;DHT22;4762;48.128;11.376;2023-09-19T06:36:43;16.80;80.80
9448;DHT22;4762;48.128;11.376;2023-09-19T06:38:53;16.70;80.70
9448;DHT22;4762;48.128;11.376;2023-09-19T06:40:56;16.80;81.30
9448;DHT22;4762;48.128;11.376;2023-09-19T06:42:59;16.80;80.80
9448;DHT22;4762;48.128;11.376;2023-09-19T06:45:03;17.00;80.70
9448;DHT22;4762;48.128;11.376;2023-09-19T06:47:10;17.30;78.60
9448;DHT22;4762;48.128;11.376;2023-09-19T06:49:12;17.50;77.90
9448;DHT22;4762;48.128;11.376;2023-09-19T06:51:19;17.50;78.90
9448;DHT22;4762;48.128;11.376;2023-09-19T06:53:24;17.50;78.50
9448;DHT22;4762;48.128;11.376;2023-09-19T06:55:35;17.30;79.80
9448;DHT22;4762;48.128;11.376;2023-09-19T06:57:39;17.10;79.60
9448;DHT22;4762;48.128;11.376;2023-09-19T06:59:53;17.00;81.00
9448;DHT22;4762;48.128;11.376;2023-09-19T07:02:03;17.00;80.20
9448;DHT22;4762;48.128;11.376;2023-09-19T07:04:14;17.10;80.40
9448;DHT22;4762;48.128;11.376;2023-09-19T07:06:25;17.10;79.50
9448;DHT22;4762;48.128;11.376;2023-09-19T07:08:28;17.20;79.60
9448;DHT22;4762;48.128;11.376;2023-09-19T07:10:33;17.60;79.20
9448;DHT22;4762;48.128;11.376;2023-09-19T07:12:39;17.60;77.90
9448;DHT22;4762;48.128;11.376;2023-09-19T07:14:52;17.50;78.60
9448;DHT22;4762;48.128;11.376;2023-09-19T07:17:09;17.60;78.20
9448;DHT22;4762;48.128;11.376;2023-09-19T07:19:14;17.60;78.50
9448;DHT22;4762;48.128;11.376;2023-09-19T07:21:18;18.30;79.40
9448;DHT22;4762;48.128;11.376;2023-09-19T07:23:27;19.00;77.00
9448;DHT22;4762;48.128;11.376;2023-09-19T07:25:37;19.10;74.40
9448;DHT22;4762;48.128;11.376;2023-09-19T07:27:43;19.00;74.20
9448;DHT22;4762;48.128;11.376;2023-09-19T07:29:54;18.80;74.20
9448;DHT22;4762;48.128;11.376;2023-09-19T07:32:05;18.50;74.30
9448;DHT22;4762;48.128;11.376;2023-09-19T07:34:18;18.30;76.80
9448;DHT22;4762;48.128;11.376;2023-09-19T07:36:26;18.10;76.90
9448;DHT22;4762;48.128;11.376;2023-09-19T07:38:42;18.30;77.80
9448;DHT22;4762;48.128;11.376;2023-09-19T07:41:04;18.60;75.30
9448;DHT22;4762;48.128;11.376;2023-09-19T07:43:23;19.10;74.70
9448;DHT22;4762;48.128;11.376;2023-09-19T07:45:27;19.70;71.70
9448;DHT22;4762;48.128;11.376;2023-09-19T07:47:43;19.70;70.90
9448;DHT22;4762;48.128;11.376;2023-09-19T07:49:52;19.70;72.30
9448;DHT22;4762;48.128;11.376;2023-09-19T07:51:58;20.10;71.20
9448;DHT22;4762;48.128;11.376;2023-09-19T07:54:09;20.00;71.00
9448;DHT22;4762;48.128;11.376;2023-09-19T07:56:28;19.70;74.50
9448;DHT22;4762;48.128;11.376;2023-09-19T07:58:33;19.20;75.70
9448;DHT22;4762;48.128;11.376;2023-09-19T08:00:37;19.10;76.00
9448;DHT22;4762;48.128;11.376;2023-09-19T08:02:42;19.10;75.70
9448;DHT22;4762;48.128;11.376;2023-09-19T08:04:46;19.10;75.30
9448;DHT22;4762;48.128;11.376;2023-09-19T08:07:10;19.30;74.40
9448;DHT22;4762;48.128;11.376;2023-09-19T08:09:37;19.20;73.40
9448;DHT22;4762;48.128;11.376;2023-09-19T08:12:06;19.10;74.80
9448;DHT22;4762;48.128;11.376;2023-09-19T08:16:46;18.90;74.90
9448;DHT22;4762;48.128;11.376;2023-09-19T08:18:50;19.70;73.50
9448;DHT22;4762;48.128;11.376;2023-09-19T08:23:22;20.70;67.70
9448;DHT22;4762;48.128;11.376;2023-09-19T08:25:36;20.90;67.30
9448;DHT22;4762;48.128;11.376;2023-09-19T08:27:41;20.90;64.80
9448;DHT22;4762;48.128;11.376;2023-09-19T08:29:46;21.20;66.80
9448;DHT22;4762;48.128;11.376;2023-09-19T08:31:52;21.40;66.50
9448;DHT22;4762;48.128;11.376;2023-09-19T08:33:58;21.80;63.50
9448;DHT22;4762;48.128;11.376;2023-09-19T08:36:14;21.70;63.80
9448;DHT22;4762;48.128;11.376;2023-09-19T08:38:23;22.00;63.30
9448;DHT22;4762;48.128;11.376;2023-09-19T08:42:56;21.70;63.00
9448;DHT22;4762;48.128;11.376;2023-09-19T08:45:00;21.90;65.00
9448;DHT22;4762;48.128;11.376;2023-09-19T08:47:18;21.70;61.10
9448;DHT22;4762;48.128;11.376;2023-09-19T08:52:01;20.50;64.70
9448;DHT22;4762;48.128;11.376;2023-09-19T08:54:06;20.20;66.00
9448;DHT22;4762;48.128;11.376;2023-09-19T08:56:10;20.30;66.10
9448;DHT22;4762;48.128;11.376;2023-09-19T08:58:19;20.60;66.60
9448;DHT22;4762;48.128;11.376;2023-09-19T09:00:40;21.50;68.30
9448;DHT22;4762;48.128;11.376;2023-09-19T09:02:46;21.90;61.70
9448;DHT22;4762;48.128;11.376;2023-09-19T09:04:50;21.20;61.70
9448;DHT22;4762;48.128;11.376;2023-09-19T09:07:03;20.60;62.80
9448;DHT22;4762;48.128;11.376;2023-09-19T09:09:07;21.40;63.00
9448;DHT22;4762;48.128;11.376;2023-09-19T09:11:10;22.30;59.80
9448;DHT22;4762;48.128;11.376;2023-09-19T09:13:14;22.50;57.60
9448;DHT22;4762;48.128;11.376;2023-09-19T09:15:31;22.60;58.30
9448;DHT22;4762;48.128;11.376;2023-09-19T09:17:35;22.90;56.50
9448;DHT22;4762;48.128;11.376;2023-09-19T09:19:42;22.60;56.40
9448;DHT22;4762;48.128;11.376;2023-09-19T09:21:45;22.60;58.20
9448;DHT22;4762;48.128;11.376;2023-09-19T09:23:49;22.50;57.10
9448;DHT22;4762;48.128;11.376;2023-09-19T09:25:55;22.60;57.80
9448;DHT22;4762;48.128;11.376;2023-09-19T09:28:04;22.50;55.40
9448;DHT22;4762;48.128;11.376;2023-09-19T09:32:32;22.00;56.60
9448;DHT22;4762;48.128;11.376;2023-09-19T09:34:40;21.30;59.20
9448;DHT22;4762;48.128;11.376;2023-09-19T09:36:52;21.60;58.60
9448;DHT22;4762;48.128;11.376;2023-09-19T09:41:25;21.80;56.00
9448;DHT22;4762;48.128;11.376;2023-09-19T09:43:36;21.30;58.40
9448;DHT22;4762;48.128;11.376;2023-09-19T09:45:43;21.10;59.00
9448;DHT22;4762;48.128;11.376;2023-09-19T09:47:47;20.90;59.30
9448;DHT22;4762;48.128;11.376;2023-09-19T09:50:03;20.90;59.70
9448;DHT22;4762;48.128;11.376;2023-09-19T09:52:13;20.70;60.10
9448;DHT22;4762;48.128;11.376;2023-09-19T09:54:21;20.60;60.50
9448;DHT22;4762;48.128;11.376;2023-09-19T09:56:31;20.80;60.60
9448;DHT22;4762;48.128;11.376;2023-09-19T09:58:36;20.90;60.30
9448;DHT22;4762;48.128;11.376;2023-09-19T10:00:51;20.70;59.70
9448;DHT22;4762;48.128;11.376;2023-09-19T10:02:44;20.90;61.60
9448;DHT22;4762;48.128;11.376;2023-09-19T10:04:46;21.00;60.60
9448;DHT22;4762;48.128;11.376;2023-09-19T10:06:56;20.90;59.70
9448;DHT22;4762;48.128;11.376;2023-09-19T10:09:04;21.10;59.40
9448;DHT22;4762;48.128;11.376;2023-09-19T10:11:22;21.60;57.50
9448;DHT22;4762;48.128;11.376;2023-09-19T10:13:32;21.40;57.80
9448;DHT22;4762;48.128;11.376;2023-09-19T10:15:38;21.00;59.50
9448;DHT22;4762;48.128;11.376;2023-09-19T10:17:42;21.50;60.60
9448;DHT22;4762;48.128;11.376;2023-09-19T10:19:54;21.40;59.40
9448;DHT22;4762;48.128;11.376;2023-09-19T10:21:56;21.30;59.50
9448;DHT22;4762;48.128;11.376;2023-09-19T10:23:59;20.90;60.30
9448;DHT22;4762;48.128;11.376;2023-09-19T10:26:05;20.80;59.70
9448;DHT22;4762;48.128;11.376;2023-09-19T10:28:10;20.70;61.30
9448;DHT22;4762;48.128;11.376;2023-09-19T10:30:16;20.80;63.00
9448;DHT22;4762;48.128;11.376;2023-09-19T10:32:23;20.90;61.40
9448;DHT22;4762;48.128;11.376;2023-09-19T10:34:26;21.20;59.70
9448;DHT22;4762;48.128;11.376;2023-09-19T10:36:32;21.00;60.50
9448;DHT22;4762;48.128;11.376;2023-09-19T10:38:32;21.00;60.90
9448;DHT22;4762;48.128;11.376;2023-09-19T10:40:39;21.50;61.50
9448;DHT22;4762;48.128;11.376;2023-09-19T10:42:46;21.90;59.30
9448;DHT22;4762;48.128;11.376;2023-09-19T10:44:50;22.80;57.70
9448;DHT22;4762;48.128;11.376;2023-09-19T10:46:56;22.30;57.50
9448;DHT22;4762;48.128;11.376;2023-09-19T10:49:03;21.70;57.50
9448;DHT22;4762;48.128;11.376;2023-09-19T10:51:24;21.40;59.50
9448;DHT22;4762;48.128;11.376;2023-09-19T10:55:58;22.00;57.80
9448;DHT22;4762;48.128;11.376;2023-09-19T10:58:02;22.60;55.80
9448;DHT22;4762;48.128;11.376;2023-09-19T11:00:06;22.90;53.80
9448;DHT22;4762;48.128;11.376;2023-09-19T11:02:16;23.10;51.70
9448;DHT22;4762;48.128;11.376;2023-09-19T11:04:38;23.80;56.50
9448;DHT22;4762;48.128;11.376;2023-09-19T11:07:08;24.10;49.50
9448;DHT22;4762;48.128;11.376;2023-09-19T11:09:16;24.30;49.60
9448;DHT22;4762;48.128;11.376;2023-09-19T11:13:34;24.10;48.30
9448;DHT22;4762;48.128;11.376;2023-09-19T11:16:04;24.60;47.60
9448;DHT22;4762;48.128;11.376;2023-09-19T11:18:38;24.30;48.70
9448;DHT22;4762;48.128;11.376;2023-09-19T11:20:19;24.50;49.00
9448;DHT22;4762;48.128;11.376;2023-09-19T11:22:21;24.70;47.40
9448;DHT22;4762;48.128;11.376;2023-09-19T11:24:30;24.90;47.30
9448;DHT22;4762;48.128;11.376;2023-09-19T11:26:56;24.20;45.90
9448;DHT22;4762;48.128;11.376;2023-09-19T11:29:06;24.10;48.10
9448;DHT22;4762;48.128;11.376;2023-09-19T11:31:00;24.20;51.00
9448;DHT22;4762;48.128;11.376;2023-09-19T11:35:16;25.70;47.60
9448;DHT22;4762;48.128;11.376;2023-09-19T11:38:05;26.40;43.60
9448;DHT22;4762;48.128;11.376;2023-09-19T11:44:33;25.80;43.40
9448;DHT22;4762;48.128;11.376;2023-09-19T11:48:55;25.80;45.70
9448;DHT22;4762;48.128;11.376;2023-09-19T11:51:11;24.70;45.00
9448;DHT22;4762;48.128;11.376;2023-09-19T11:53:15;24.60;48.10
9448;DHT22;4762;48.128;11.376;2023-09-19T11:55:33;24.50;46.50
9448;DHT22;4762;48.128;11.376;2023-09-19T11:57:40;24.10;48.30
9448;DHT22;4762;48.128;11.376;2023-09-19T11:59:46;24.00;48.00
9448;DHT22;4762;48.128;11.376;2023-09-19T12:02:07;23.70;49.50
9448;DHT22;4762;48.128;11.376;2023-09-19T12:04:13;23.80;50.40
9448;DHT22;4762;48.128;11.376;2023-09-19T12:06:17;23.60;47.70
9448;DHT22;4762;48.128;11.376;2023-09-19T12:08:21;23.20;48.60
9448;DHT22;4762;48.128;11.376;2023-09-19T12:10:24;23.20;48.60
9448;DHT22;4762;48.128;11.376;2023-09-19T12:12:26;24.00;48.40
9448;DHT22;4762;48.128;11.376;2023-09-19T12:14:37;24.80;46.70
9448;DHT22;4762;48.128;11.376;2023-09-19T12:19:22;25.10;44.40
9448;DHT22;4762;48.128;11.376;2023-09-19T12:21:27;25.20;46.30
9448;DHT22;4762;48.128;11.376;2023-09-19T12:23:38;25.60;43.20
9448;DHT22;4762;48.128;11.376;2023-09-19T12:25:44;25.40;44.70
9448;DHT22;4762;48.128;11.376;2023-09-19T12:27:49;25.60;44.80
9448;DHT22;4762;48.128;11.376;2023-09-19T12:29:58;26.40;42.60
9448;DHT22;4762;48.128;11.376;2023-09-19T12:32:01;25.50;43.90
9448;DHT22;4762;48.128;11.376;2023-09-19T12:34:30;25.60;43.80
9448;DHT22;4762;48.128;11.376;2023-09-19T12:36:49;25.50;44.40
9448;DHT22;4762;48.128;11.376;2023-09-19T12:39:03;25.40;42.90
9448;DHT22;4762;48.128;11.376;2023-09-19T12:43:31;25.90;44.80
9448;DHT22;4762;48.128;11.376;2023-09-19T12:45:37;25.90;44.80
9448;DHT22;4762;48.128;11.376;2023-09-19T12:50:15;26.20;44.00
9448;DHT22;4762;48.128;11.376;2023-09-19T12:52:20;25.60;44.80
9448;DHT22;4762;48.128;11.376;2023-09-19T12:54:24;26.10;44.20
9448;DHT22;4762;48.128;11.376;2023-09-19T12:56:38;25.70;43.60
9448;DHT22;4762;48.128;11.376;2023-09-19T13:00:55;25.60;44.50
9448;DHT22;4762;48.128;11.376;2023-09-19T13:05:16;25.10;46.50
9448;DHT22;4762;48.128;11.376;2023-09-19T13:10:01;26.10;43.90
9448;DHT22;4762;48.128;11.376;2023-09-19T13:11:56;25.60;43.90
9448;DHT22;4762;48.128;11.376;2023-09-19T13:18:59;25.40;46.10
9448;DHT22;4762;48.128;11.376;2023-09-19T13:21:08;25.70;44.40
9448;DHT22;4762;48.128;11.376;2023-09-19T13:23:28;25.70;43.50
9448;DHT22;4762;48.128;11.376;2023-09-19T13:25:39;25.40;45.00
9448;DHT22;4762;48.128;11.376;2023-09-19T13:27:51;25.50;43.80
9448;DHT22;4762;48.128;11.376;2023-09-19T13:29:58;25.90;43.60
9448;DHT22;4762;48.128;11.376;2023-09-19T13:32:06;25.40;43.00
9448;DHT22;4762;48.128;11.376;2023-09-19T13:34:10;25.30;44.50
9448;DHT22;4762;48.128;11.376;2023-09-19T13:39:00;25.00;43.40
9448;DHT22;4762;48.128;11.376;2023-09-19T13:41:02;25.30;44.70
9448;DHT22;4762;48.128;11.376;2023-09-19T13:43:10;25.20;43.30
9448;DHT22;4762;48.128;11.376;2023-09-19T13:45:17;25.40;43.80
9448;DHT22;4762;48.128;11.376;2023-09-19T13:47:19;25.40;43.30
9448;DHT22;4762;48.128;11.376;2023-09-19T13:49:27;25.20;43.70
9448;DHT22;4762;48.128;11.376;2023-09-19T13:51:32;25.00;42.20
9448;DHT22;4762;48.128;11.376;2023-09-19T13:53:34;24.70;45.00
9448;DHT22;4762;48.128;11.376;2023-09-19T13:55:39;24.80;44.30
9448;DHT22;4762;48.128;11.376;2023-09-19T13:57:53;24.20;45.50
9448;DHT22;4762;48.128;11.376;2023-09-19T14:00:02;24.70;45.00
9448;DHT22;4762;48.128;11.376;2023-09-19T14:02:07;24.80;45.00
9448;DHT22;4762;48.128;11.376;2023-09-19T14:04:31;25.00;46.10
9448;DHT22;4762;48.128;11.376;2023-09-19T14:09:24;25.30;46.50
9448;DHT22;4762;48.128;11.376;2023-09-19T14:11:29;25.10;44.50
9448;DHT22;4762;48.128;11.376;2023-09-19T14:13:40;25.00;45.30
9448;DHT22;4762;48.128;11.376;2023-09-19T14:15:50;25.00;44.80
9448;DHT22;4762;48.128;11.376;2023-09-19T14:17:58;24.70;47.20
9448;DHT22;4762;48.128;11.376;2023-09-19T14:20:16;24.70;45.90
9448;DHT22;4762;48.128;11.376;2023-09-19T14:22:27;24.80;45.00
9448;DHT22;4762;48.128;11.376;2023-09-19T14:24:35;24.70;45.00
9448;DHT22;4762;48.128;11.376;2023-09-19T14:26:38;24.70;45.10
9448;DHT22;4762;48.128;11.376;2023-09-19T14:28:51;25.30;43.50
9448;DHT22;4762;48.128;11.376;2023-09-19T14:31:08;24.80;45.20
9448;DHT22;4762;48.128;11.376;2023-09-19T14:33:18;24.90;45.80
9448;DHT22;4762;48.128;11.376;2023-09-19T14:35:26;25.10;44.80
9448;DHT22;4762;48.128;11.376;2023-09-19T14:37:32;25.20;45.50
9448;DHT22;4762;48.128;11.376;2023-09-19T14:39:35;24.70;44.40
9448;DHT22;4762;48.128;11.376;2023-09-19T14:41:37;24.50;46.80
9448;DHT22;4762;48.128;11.376;2023-09-19T14:43:44;24.50;46.60
9448;DHT22;4762;48.128;11.376;2023-09-19T14:45:48;24.30;45.70
9448;DHT22;4762;48.128;11.376;2023-09-19T14:47:57;24.30;47.60
9448;DHT22;4762;48.128;11.376;2023-09-19T14:50:02;24.10;47.70
9448;DHT22;4762;48.128;11.376;2023-09-19T14:52:06;24.40;47.20
9448;DHT22;4762;48.128;11.376;2023-09-19T14:54:13;24.70;45.60
9448;DHT22;4762;48.128;11.376;2023-09-19T14:56:17;25.10;46.40
9448;DHT22;4762;48.128;11.376;2023-09-19T15:00:35;25.00;44.30
9448;DHT22;4762;48.128;11.376;2023-09-19T15:02:42;24.40;45.30
9448;DHT22;4762;48.128;11.376;2023-09-19T15:04:48;24.20;46.50
9448;DHT22;4762;48.128;11.376;2023-09-19T15:07:03;24.10;46.10
9448;DHT22;4762;48.128;11.376;2023-09-19T15:09:15;24.20;47.70
9448;DHT22;4762;48.128;11.376;2023-09-19T15:11:25;24.00;46.70
9448;DHT22;4762;48.128;11.376;2023-09-19T15:16:08;24.00;44.70
9448;DHT22;4762;48.128;11.376;2023-09-19T15:18:13;23.90;45.30
9448;DHT22;4762;48.128;11.376;2023-09-19T15:20:28;24.20;44.90
9448;DHT22;4762;48.128;11.376;2023-09-19T15:28:12;24.40;45.40
9448;DHT22;4762;48.128;11.376;2023-09-19T15:35:42;23.90;47.80
9448;DHT22;4762;48.128;11.376;2023-09-19T15:40:09;24.00;46.50
9448;DHT22;4762;48.128;11.376;2023-09-19T15:46:59;23.50;46.50
9448;DHT22;4762;48.128;11.376;2023-09-19T15:49:04;23.50;46.50
9448;DHT22;4762;48.128;11.376;2023-09-19T15:59:11;23.40;46.50
9448;DHT22;4762;48.128;11.376;2023-09-19T16:01:22;23.50;46.80
9448;DHT22;4762;48.128;11.376;2023-09-19T16:03:27;23.50;46.20
9448;DHT22;4762;48.128;11.376;2023-09-19T16:08:21;22.90;47.40
9448;DHT22;4762;48.128;11.376;2023-09-19T16:15:09;22.20;48.70
9448;DHT22;4762;48.128;11.376;2023-09-19T16:17:14;21.80;51.00
9448;DHT22;4762;48.128;11.376;2023-09-19T16:19:18;21.60;52.10
9448;DHT22;4762;48.128;11.376;2023-09-19T16:21:24;21.60;51.00
9448;DHT22;4762;48.128;11.376;2023-09-19T16:23:28;21.60;51.70
9448;DHT22;4762;48.128;11.376;2023-09-19T16:25:40;21.60;51.50
9448;DHT22;4762;48.128;11.376;2023-09-19T16:27:53;21.40;51.40
9448;DHT22;4762;48.128;11.376;2023-09-19T16:32:40;21.30;53.50
9448;DHT22;4762;48.128;11.376;2023-09-19T16:34:50;21.20;52.80
9448;DHT22;4762;48.128;11.376;2023-09-19T16:37:00;21.20;53.80
9448;DHT22;4762;48.128;11.376;2023-09-19T16:39:17;21.00;53.30
9448;DHT22;4762;48.128;11.376;2023-09-19T16:44:03;20.90;54.20
9448;DHT22;4762;48.128;11.376;2023-09-19T16:46:11;20.70;54.20
9448;DHT22;4762;48.128;11.376;2023-09-19T16:48:14;20.50;54.10
9448;DHT22;4762;48.128;11.376;2023-09-19T16:50:27;20.40;55.90
9448;DHT22;4762;48.128;11.376;2023-09-19T16:52:42;20.40;55.20
9448;DHT22;4762;48.128;11.376;2023-09-19T16:54:47;20.30;55.70
9448;DHT22;4762;48.128;11.376;2023-09-19T16:56:56;20.30;56.10
9448;DHT22;4762;48.128;11.376;2023-09-19T16:59:04;20.20;56.50
9448;DHT22;4762;48.128;11.376;2023-09-19T17:01:26;20.20;56.80
9448;DHT22;4762;48.128;11.376;2023-09-19T17:06:19;20.00;58.70
9448;DHT22;4762;48.128;11.376;2023-09-19T17:13:43;19.80;58.10
9448;DHT22;4762;48.128;11.376;2023-09-19T17:34:16;19.10;61.30
9448;DHT22;4762;48.128;11.376;2023-09-19T17:36:39;19.00;61.70
9448;DHT22;4762;48.128;11.376;2023-09-19T17:39:08;18.80;63.50
9448;DHT22;4762;48.128;11.376;2023-09-19T17:41:28;18.70;63.70
9448;DHT22;4762;48.128;11.376;2023-09-19T17:48:56;18.30;65.00
9448;DHT22;4762;48.128;11.376;2023-09-19T17:51:03;18.30;65.30
9448;DHT22;4762;48.128;11.376;2023-09-19T17:53:21;18.30;65.20
9448;DHT22;4762;48.128;11.376;2023-09-19T17:55:25;18.20;65.70
9448;DHT22;4762;48.128;11.376;2023-09-19T17:57:29;18.00;65.70
9448;DHT22;4762;48.128;11.376;2023-09-19T17:59:48;17.90;66.50
9448;DHT22;4762;48.128;11.376;2023-09-19T18:01:54;17.80;67.00
9448;DHT22;4762;48.128;11.376;2023-09-19T18:03:58;17.70;66.70
9448;DHT22;4762;48.128;11.376;2023-09-19T18:06:03;17.70;67.90
9448;DHT22;4762;48.128;11.376;2023-09-19T18:08:19;17.60;67.50
9448;DHT22;4762;48.128;11.376;2023-09-19T18:10:41;17.60;67.70
9448;DHT22;4762;48.128;11.376;2023-09-19T18:12:46;17.50;67.70
9448;DHT22;4762;48.128;11.376;2023-09-19T18:33:16;17.20;69.80
9448;DHT22;4762;48.128;11.376;2023-09-19T18:48:30;16.50;72.60
9448;DHT22;4762;48.128;11.376;2023-09-19T18:50:40;16.40;73.70
9448;DHT22;4762;48.128;11.376;2023-09-19T18:53:01;16.30;74.10
9448;DHT22;4762;48.128;11.376;2023-09-19T18:55:07;16.30;74.50
9448;DHT22;4762;48.128;11.376;2023-09-19T18:57:13;16.30;74.40
9448;DHT22;4762;48.128;11.376;2023-09-19T18:59:18;16.30;74.10
9448;DHT22;4762;48.128;11.376;2023-09-19T19:01:28;16.20;74.10
9448;DHT22;4762;48.128;11.376;2023-09-19T19:03:33;16.20;74.70
9448;DHT22;4762;48.128;11.376;2023-09-19T19:05:40;16.20;74.70
9448;DHT22;4762;48.128;11.376;2023-09-19T19:07:44;16.20;74.70
9448;DHT22;4762;48.128;11.376;2023-09-19T19:09:49;16.20;74.60
9448;DHT22;4762;48.128;11.376;2023-09-19T19:11:57;16.10;75.50
9448;DHT22;4762;48.128;11.376;2023-09-19T19:14:00;16.10;75.80
9448;DHT22;4762;48.128;11.376;2023-09-19T19:16:17;16.00;75.30
9448;DHT22;4762;48.128;11.376;2023-09-19T19:18:22;16.00;75.50
9448;DHT22;4762;48.128;11.376;2023-09-19T19:20:28;16.00;75.80
9448;DHT22;4762;48.128;11.376;2023-09-19T19:22:37;15.90;75.70
9448;DHT22;4762;48.128;11.376;2023-09-19T19:27:05;15.90;77.00
9448;DHT22;4762;48.128;11.376;2023-09-19T19:29:09;15.80;77.00
9448;DHT22;4762;48.128;11.376;2023-09-19T19:31:15;15.80;76.40
9448;DHT22;4762;48.128;11.376;2023-09-19T19:33:18;15.70;77.20
9448;DHT22;4762;48.128;11.376;2023-09-19T19:35:21;15.70;76.80
9448;DHT22;4762;48.128;11.376;2023-09-19T19:37:29;15.70;77.70
9448;DHT22;4762;48.128;11.376;2023-09-19T19:39:34;15.70;77.00
9448;DHT22;4762;48.128;11.376;2023-09-19T19:41:37;15.60;78.70
9448;DHT22;4762;48.128;11.376;2023-09-19T19:43:39;15.60;78.70
9448;DHT22;4762;48.128;11.376;2023-09-19T19:45:43;15.50;77.70
9448;DHT22;4762;48.128;11.376;2023-09-19T19:47:48;15.50;79.00
9448;DHT22;4762;48.128;11.376;2023-09-19T19:49:51;15.40;78.50
9448;DHT22;4762;48.128;11.376;2023-09-19T19:51:55;15.30;78.60
9448;DHT22;4762;48.128;11.376;2023-09-19T19:56:23;15.30;78.20
9448;DHT22;4762;48.128;11.376;2023-09-19T19:58:33;15.20;79.30
9448;DHT22;4762;48.128;11.376;2023-09-19T20:00:36;15.20;79.10
9448;DHT22;4762;48.128;11.376;2023-09-19T20:02:39;15.20;79.40
9448;DHT22;4762;48.128;11.376;2023-09-19T20:04:43;15.10;79.60
9448;DHT22;4762;48.128;11.376;2023-09-19T20:06:46;15.10;80.40
9448;DHT22;4762;48.128;11.376;2023-09-19T20:08:50;15.00;81.70
9448;DHT22;4762;48.128;11.376;2023-09-19T20:10:53;15.00;81.40
9448;DHT22;4762;48.128;11.376;2023-09-19T20:12:59;14.90;81.80